createdAt,value
2023-04-16T00:01:21.244Z,6.18
2023-04-16T00:03:48.765Z,6.18
2023-04-16T00:06:16.667Z,5.88
2023-04-16T00:08:43.941Z,6.30
2023-04-16T00:11:11.701Z,6.72
2023-04-16T00:13:38.948Z,6.28
2023-04-16T00:16:06.856Z,6.20
2023-04-16T00:18:34.190Z,6.38
2023-04-16T00:21:01.746Z,5.70
2023-04-16T00:23:29.109Z,6.03
2023-04-16T00:26:00.191Z,5.88
2023-04-16T00:28:27.908Z,7.15
2023-04-16T00:30:56.039Z,6.72
2023-04-16T00:35:51.371Z,7.50
2023-04-16T00:38:18.712Z,7.00
2023-04-16T00:40:46.069Z,6.78
2023-04-16T00:43:23.285Z,6.50
2023-04-16T00:45:51.774Z,6.40
2023-04-16T00:48:20.825Z,7.13
2023-04-16T00:50:49.074Z,7.47
2023-04-16T00:55:44.724Z,6.75
2023-04-16T00:58:12.278Z,6.40
2023-04-16T01:00:39.602Z,7.35
2023-04-16T01:03:07.056Z,6.70
2023-04-16T01:05:35.694Z,6.70
2023-04-16T01:08:03.172Z,6.57
2023-04-16T01:10:30.966Z,7.95
2023-04-16T01:12:58.410Z,6.10
2023-04-16T01:15:25.753Z,6.45
2023-04-16T01:17:53.089Z,7.30
2023-04-16T01:20:20.663Z,5.97
2023-04-16T01:22:47.904Z,6.93
2023-04-16T01:25:16.458Z,7.67
2023-04-16T01:27:43.853Z,7.22
2023-04-16T01:30:11.566Z,7.35
2023-04-16T01:32:49.737Z,7.47
2023-04-16T01:35:18.533Z,6.63
2023-04-16T01:37:46.464Z,7.05
2023-04-16T01:40:13.961Z,6.70
2023-04-16T01:42:41.317Z,7.40
2023-04-16T01:45:09.284Z,5.95
2023-04-16T01:47:36.884Z,5.93
2023-04-16T01:50:05.715Z,7.32
2023-04-16T01:52:32.969Z,7.43
2023-04-16T01:55:00.508Z,7.55
2023-04-16T01:57:27.790Z,6.63
2023-04-16T01:59:55.162Z,6.82
2023-04-16T02:02:28.246Z,6.82
2023-04-16T02:04:57.595Z,7.65
2023-04-16T02:07:25.720Z,6.45
2023-04-16T02:09:53.080Z,7.78
2023-04-16T02:12:21.307Z,6.30
2023-04-16T02:14:49.728Z,6.57
2023-04-16T02:17:18.859Z,6.60
2023-04-16T02:19:49.204Z,6.60
2023-04-16T02:22:17.463Z,7.15
2023-04-16T02:24:44.830Z,7.70
2023-04-16T02:27:12.217Z,6.80
2023-04-16T02:29:41.242Z,6.90
2023-04-16T02:32:14.208Z,6.40
2023-04-16T02:34:45.047Z,7.25
2023-04-16T02:37:15.515Z,6.80
2023-04-16T02:39:44.144Z,7.13
2023-04-16T02:42:11.470Z,7.07
2023-04-16T02:44:38.841Z,8.02
2023-04-16T02:47:06.188Z,7.57
2023-04-16T02:49:33.532Z,6.63
2023-04-16T02:52:00.885Z,7.55
2023-04-16T02:54:28.241Z,6.93
2023-04-16T02:56:55.711Z,7.03
2023-04-16T02:59:23.085Z,6.57
2023-04-16T03:01:50.726Z,7.33
2023-04-16T03:04:18.398Z,7.55
2023-04-16T03:06:45.760Z,6.85
2023-04-16T03:09:13.434Z,7.13
2023-04-16T03:11:40.855Z,5.90
2023-04-16T03:14:08.058Z,6.45
2023-04-16T03:16:35.399Z,6.97
2023-04-16T03:19:02.739Z,6.80
2023-04-16T03:21:30.147Z,7.27
2023-04-16T03:23:59.081Z,6.43
2023-04-16T03:26:26.591Z,7.53
2023-04-16T03:28:55.026Z,7.00
2023-04-16T03:31:25.177Z,6.72
2023-04-16T03:33:53.816Z,6.60
2023-04-16T03:36:21.348Z,6.90
2023-04-16T03:38:49.365Z,8.80
2023-04-16T03:41:17.437Z,7.18
2023-04-16T03:43:45.543Z,7.10
2023-04-16T03:46:12.903Z,6.90
2023-04-16T03:48:40.404Z,8.77
2023-04-16T03:51:08.348Z,8.35
2023-04-16T03:53:35.865Z,8.00
2023-04-16T03:56:03.332Z,6.82
2023-04-16T03:58:31.502Z,6.82
2023-04-16T04:00:58.831Z,6.38
2023-04-16T04:03:26.695Z,8.10
2023-04-16T04:05:55.580Z,8.38
2023-04-16T04:08:29.195Z,7.03
2023-04-16T04:10:56.752Z,7.40
2023-04-16T04:13:25.849Z,6.50
2023-04-16T04:18:22.538Z,6.30
2023-04-16T04:20:50.055Z,6.65
2023-04-16T04:23:20.260Z,5.82
2023-04-16T04:25:48.327Z,6.60
2023-04-16T04:28:16.284Z,6.25
2023-04-16T04:30:43.863Z,6.03
2023-04-16T04:33:11.548Z,5.55
2023-04-16T04:35:39.203Z,5.65
2023-04-16T04:38:06.794Z,5.45
2023-04-16T04:40:34.918Z,5.18
2023-04-16T04:43:04.568Z,4.90
2023-04-16T04:45:32.300Z,4.63
2023-04-16T04:48:00.289Z,4.70
2023-04-16T04:50:27.813Z,5.13
2023-04-16T04:52:55.243Z,4.90
2023-04-16T04:55:22.708Z,4.67
2023-04-16T04:57:51.506Z,4.78
2023-04-16T05:00:19.473Z,5.40
2023-04-16T05:02:55.369Z,5.00
2023-04-16T05:05:23.023Z,5.40
2023-04-16T05:07:50.345Z,4.95
2023-04-16T05:10:17.717Z,4.32
2023-04-16T05:12:49.974Z,4.80
2023-04-16T05:15:17.568Z,4.63
2023-04-16T05:17:44.910Z,4.88
2023-04-16T05:20:12.671Z,4.60
2023-04-16T05:22:39.950Z,3.78
2023-04-16T05:25:07.542Z,4.30
2023-04-16T05:27:34.878Z,4.03
2023-04-16T05:30:02.482Z,4.25
2023-04-16T05:32:31.940Z,4.28
2023-04-16T05:34:59.305Z,3.95
2023-04-16T05:37:26.588Z,4.45
2023-04-16T05:39:53.983Z,4.30
2023-04-16T05:42:21.219Z,4.35
2023-04-16T05:44:48.689Z,4.03
2023-04-16T05:47:15.953Z,4.00
2023-04-16T05:49:43.305Z,4.70
2023-04-16T05:52:10.630Z,4.25
2023-04-16T05:54:37.880Z,4.10
2023-04-16T05:57:05.347Z,4.35
2023-04-16T05:59:33.115Z,4.37
2023-04-16T06:02:00.530Z,4.55
2023-04-16T06:04:27.905Z,4.35
2023-04-16T06:06:55.134Z,4.20
2023-04-16T06:09:22.453Z,3.17
2023-04-16T06:11:49.987Z,2.90
2023-04-16T06:14:17.372Z,2.57
2023-04-16T06:16:44.847Z,2.92
2023-04-16T06:19:12.352Z,2.40
2023-04-16T06:21:39.851Z,2.83
2023-04-16T06:24:07.221Z,2.60
2023-04-16T06:26:34.516Z,2.78
2023-04-16T06:29:01.843Z,2.50
2023-04-16T06:31:30.678Z,2.87
2023-04-16T06:33:58.156Z,2.60
2023-04-16T06:36:27.219Z,2.10
2023-04-16T06:38:54.790Z,2.47
2023-04-16T06:41:23.060Z,2.10
2023-04-16T06:43:50.749Z,2.28
2023-04-16T06:46:18.269Z,2.33
2023-04-16T06:48:45.768Z,2.30
2023-04-16T06:51:13.579Z,2.00
2023-04-16T06:53:41.317Z,2.50
2023-04-16T06:56:09.063Z,2.60
2023-04-16T06:58:36.537Z,1.90
2023-04-16T07:01:04.216Z,1.80
2023-04-16T07:03:31.788Z,2.10
2023-04-16T07:05:59.344Z,2.05
2023-04-16T07:08:26.623Z,2.10
2023-04-16T07:10:54.567Z,1.92
2023-04-16T07:13:22.229Z,1.73
2023-04-16T07:15:49.505Z,2.10
2023-04-16T07:18:17.305Z,1.70
2023-04-16T07:20:45.667Z,1.75
2023-04-16T07:23:12.993Z,2.03
2023-04-16T07:25:42.396Z,1.67
2023-04-16T07:28:09.777Z,2.13
2023-04-16T07:30:37.170Z,1.80
2023-04-16T07:33:04.975Z,2.00
2023-04-16T07:35:32.683Z,1.90
2023-04-16T07:38:00.018Z,1.73
2023-04-16T07:40:27.328Z,1.77
2023-04-16T07:42:55.634Z,2.33
2023-04-16T07:45:24.988Z,1.63
2023-04-16T07:47:52.296Z,1.80
2023-04-16T07:50:19.709Z,2.13
2023-04-16T07:52:50.251Z,2.00
2023-04-16T07:55:17.568Z,2.20
2023-04-16T07:57:44.852Z,2.40
2023-04-16T08:00:12.722Z,3.00
2023-04-16T08:02:44.913Z,2.85
2023-04-16T08:05:13.373Z,2.70
2023-04-16T08:07:40.820Z,2.80
2023-04-16T08:10:09.067Z,3.53
2023-04-16T08:15:03.918Z,2.45
2023-04-16T08:17:35.111Z,2.47
2023-04-16T08:20:02.559Z,2.20
2023-04-16T08:22:32.924Z,2.30
2023-04-16T08:27:27.371Z,2.72
2023-04-16T08:29:54.650Z,2.85
2023-04-16T08:32:21.991Z,2.67
2023-04-16T08:34:49.484Z,2.40
2023-04-16T08:37:16.800Z,2.47
2023-04-16T08:39:44.337Z,2.30
2023-04-16T08:42:27.297Z,2.05
2023-04-16T08:45:09.156Z,2.50
2023-04-16T08:47:37.533Z,2.40
2023-04-16T08:50:06.266Z,2.38
2023-04-16T08:52:37.819Z,2.50
2023-04-16T08:55:14.306Z,2.28
2023-04-16T08:57:57.850Z,2.00
2023-04-16T09:00:25.642Z,2.25
2023-04-16T09:02:54.155Z,1.70
2023-04-16T09:05:25.947Z,1.60
2023-04-16T09:07:54.805Z,2.40
2023-04-16T09:10:22.474Z,2.35
2023-04-16T09:12:50.245Z,1.88
2023-04-16T09:15:17.662Z,2.55
2023-04-16T09:17:45.205Z,2.23
2023-04-16T09:20:13.059Z,1.90
2023-04-16T09:22:40.618Z,2.20
2023-04-16T09:25:08.787Z,1.85
2023-04-16T09:27:37.321Z,2.00
2023-04-16T09:30:24.360Z,1.98
2023-04-16T09:32:53.870Z,1.92
2023-04-16T09:35:21.780Z,1.70
2023-04-16T09:37:57.882Z,1.98
2023-04-16T09:40:30.709Z,1.90
2023-04-16T09:43:00.988Z,1.90
2023-04-16T09:45:32.902Z,2.38
2023-04-16T09:48:05.637Z,2.20
2023-04-16T09:50:32.963Z,2.22
2023-04-16T09:53:03.804Z,2.13
2023-04-16T09:55:31.136Z,1.73
2023-04-16T09:58:02.582Z,2.40
2023-04-16T10:00:31.735Z,3.70
2023-04-16T10:03:07.358Z,2.80
2023-04-16T10:05:35.496Z,3.03
2023-04-16T10:08:03.237Z,2.92
2023-04-16T10:10:30.790Z,2.33
2023-04-16T10:12:58.651Z,5.45
2023-04-16T10:15:28.547Z,2.53
2023-04-16T10:17:57.443Z,2.17
2023-04-16T10:20:25.298Z,2.03
2023-04-16T10:22:54.406Z,1.55
2023-04-16T10:25:22.361Z,1.80
2023-04-16T10:27:50.848Z,2.00
2023-04-16T10:30:19.676Z,1.75
2023-04-16T10:32:47.463Z,1.90
2023-04-16T10:35:24.019Z,1.50
2023-04-16T10:37:57.537Z,2.50
2023-04-16T10:40:27.582Z,1.80
2023-04-16T10:42:59.807Z,2.30
2023-04-16T10:45:37.926Z,2.08
2023-04-16T10:48:10.161Z,1.75
2023-04-16T10:50:38.142Z,2.00
2023-04-16T10:53:18.882Z,2.10
2023-04-16T10:56:15.773Z,1.90
2023-04-16T10:58:43.097Z,2.50
2023-04-16T11:01:16.799Z,2.13
2023-04-16T11:03:48.170Z,2.70
2023-04-16T11:06:23.990Z,3.17
2023-04-16T11:08:54.981Z,2.60
2023-04-16T11:11:39.798Z,3.25
2023-04-16T11:14:11.075Z,3.00
2023-04-16T11:16:41.640Z,3.42
2023-04-16T11:19:15.907Z,2.13
2023-04-16T11:21:45.527Z,1.70
2023-04-16T11:24:12.982Z,2.65
2023-04-16T11:26:40.451Z,2.55
2023-04-16T11:29:17.856Z,1.75
2023-04-16T11:31:52.847Z,1.85
2023-04-16T11:34:20.904Z,1.92
2023-04-16T11:36:50.422Z,1.75
2023-04-16T11:39:18.885Z,2.00
2023-04-16T11:41:52.639Z,2.10
2023-04-16T11:44:28.161Z,2.00
2023-04-16T11:46:55.650Z,1.65
2023-04-16T11:49:32.291Z,1.70
2023-04-16T11:52:00.386Z,3.53
2023-04-16T11:54:27.727Z,11.65
2023-04-16T11:56:54.992Z,8.53
2023-04-16T11:59:24.698Z,5.77
2023-04-16T12:01:57.521Z,4.57
2023-04-16T12:04:29.581Z,3.47
2023-04-16T12:07:13.698Z,2.88
2023-04-16T12:09:44.117Z,3.00
2023-04-16T12:12:28.346Z,2.40
2023-04-16T12:14:57.086Z,2.08
2023-04-16T12:17:24.696Z,2.00
2023-04-16T12:19:57.018Z,3.25
2023-04-16T12:22:30.181Z,2.70
2023-04-16T12:25:10.804Z,3.08
2023-04-16T12:27:53.768Z,2.97
2023-04-16T12:30:24.410Z,2.22
2023-04-16T12:33:12.304Z,2.15
2023-04-16T12:35:41.798Z,1.80
2023-04-16T12:38:09.577Z,2.03
2023-04-16T12:40:37.187Z,2.13
2023-04-16T12:43:04.529Z,2.00
2023-04-16T12:45:31.897Z,1.88
2023-04-16T12:47:59.729Z,1.80
2023-04-16T12:50:28.758Z,2.72
2023-04-16T12:52:57.603Z,7.85
2023-04-16T12:55:25.561Z,4.32
2023-04-16T12:57:53.247Z,4.70
2023-04-16T13:00:20.995Z,2.90
2023-04-16T13:02:48.533Z,4.70
2023-04-16T13:05:17.436Z,6.25
2023-04-16T13:07:44.993Z,7.53
2023-04-16T13:10:13.393Z,6.53
2023-04-16T13:12:41.246Z,2.97
2023-04-16T13:15:11.864Z,1.90
2023-04-16T13:17:39.232Z,4.13
2023-04-16T13:20:07.181Z,3.07
2023-04-16T13:22:34.697Z,2.65
2023-04-16T13:25:02.207Z,2.05
2023-04-16T13:27:32.275Z,1.60
2023-04-16T13:29:59.583Z,1.95
2023-04-16T13:32:27.107Z,1.70
2023-04-16T13:34:54.433Z,2.15
2023-04-16T13:37:21.740Z,1.90
2023-04-16T13:39:49.061Z,2.37
2023-04-16T13:42:17.020Z,2.03
2023-04-16T13:44:45.223Z,3.40
2023-04-16T13:49:39.605Z,2.92
2023-04-16T13:52:06.917Z,2.53
2023-04-16T13:54:34.481Z,5.97
2023-04-16T13:57:01.834Z,2.13
2023-04-16T13:59:29.244Z,2.43
2023-04-16T14:01:56.554Z,2.20
2023-04-16T14:04:23.903Z,2.30
2023-04-16T14:06:51.367Z,2.30
2023-04-16T14:09:18.717Z,2.58
2023-04-16T14:11:46.111Z,2.60
2023-04-16T14:14:13.554Z,2.10
2023-04-16T14:16:41.101Z,3.08
2023-04-16T14:19:08.602Z,3.97
2023-04-16T14:21:36.099Z,3.50
2023-04-16T14:24:03.678Z,6.03
2023-04-16T14:26:31.085Z,11.38
2023-04-16T14:28:58.351Z,10.32
2023-04-16T14:31:25.820Z,7.93
2023-04-16T14:33:53.385Z,5.28
2023-04-16T14:36:20.756Z,4.47
2023-04-16T14:38:48.620Z,3.72
2023-04-16T14:41:15.943Z,3.33
2023-04-16T14:43:44.518Z,4.38
2023-04-16T14:46:12.055Z,3.60
2023-04-16T14:48:39.366Z,2.83
2023-04-16T14:51:07.397Z,3.13
2023-04-16T14:53:36.337Z,3.20
2023-04-16T14:56:04.577Z,2.60
2023-04-16T14:58:32.514Z,2.35
2023-04-16T15:01:00.559Z,3.20
2023-04-16T15:03:28.316Z,2.35
2023-04-16T15:05:56.274Z,3.42
2023-04-16T15:08:24.597Z,4.70
2023-04-16T15:10:52.023Z,3.10
2023-04-16T15:13:19.580Z,2.50
2023-04-16T15:15:47.079Z,2.90
2023-04-16T15:18:14.442Z,2.13
2023-04-16T15:20:41.936Z,2.42
2023-04-16T15:23:09.290Z,3.35
2023-04-16T15:25:36.793Z,2.65
2023-04-16T15:28:06.726Z,2.83
2023-04-16T15:30:34.147Z,2.53
2023-04-16T15:33:01.935Z,2.50
2023-04-16T15:35:29.380Z,3.10
2023-04-16T15:37:56.725Z,3.70
2023-04-16T15:40:25.361Z,3.28
2023-04-16T15:42:52.705Z,3.47
2023-04-16T15:45:20.120Z,3.55
2023-04-16T15:47:51.385Z,3.03
2023-04-16T15:50:20.526Z,4.03
2023-04-16T15:52:48.097Z,3.80
2023-04-16T15:55:16.964Z,4.43
2023-04-16T15:57:45.658Z,3.22
2023-04-16T16:00:14.182Z,3.90
2023-04-16T16:02:43.025Z,4.05
2023-04-16T16:05:13.497Z,4.07
2023-04-16T16:07:42.031Z,3.70
2023-04-16T16:12:37.749Z,3.70
2023-04-16T16:15:09.258Z,3.92
2023-04-16T16:17:37.076Z,4.53
2023-04-16T16:20:06.816Z,4.55
2023-04-16T16:22:34.144Z,3.88
2023-04-16T16:25:01.949Z,3.57
2023-04-16T16:27:29.447Z,3.92
2023-04-16T16:29:56.795Z,4.13
2023-04-16T16:32:24.294Z,5.00
2023-04-16T16:34:51.678Z,4.97
2023-04-16T16:37:18.944Z,5.60
2023-04-16T16:39:46.291Z,9.13
2023-04-16T16:42:14.307Z,10.55
2023-04-16T16:44:41.579Z,16.17
2023-04-16T16:47:11.165Z,13.17
2023-04-16T16:49:38.428Z,11.18
2023-04-16T16:52:05.742Z,8.35
2023-04-16T16:54:33.054Z,9.02
2023-04-16T16:57:02.507Z,7.77
2023-04-16T16:59:29.857Z,10.13
2023-04-16T17:01:57.200Z,11.15
2023-04-16T17:04:24.732Z,11.47
2023-04-16T17:06:52.284Z,11.93
2023-04-16T17:09:19.726Z,10.75
2023-04-16T17:11:47.175Z,11.80
2023-04-16T17:14:14.462Z,10.73
2023-04-16T17:16:41.751Z,9.05
2023-04-16T17:19:09.485Z,8.17
2023-04-16T17:21:36.958Z,6.53
2023-04-16T17:24:04.408Z,8.57
2023-04-16T17:26:32.083Z,6.77
2023-04-16T17:28:59.571Z,7.50
2023-04-16T17:31:27.910Z,9.13
2023-04-16T17:36:25.653Z,9.20
2023-04-16T17:38:53.345Z,8.23
2023-04-16T17:41:21.219Z,7.50
2023-04-16T17:43:50.767Z,5.93
2023-04-16T17:46:20.753Z,6.95
2023-04-16T17:48:49.060Z,5.88
2023-04-16T17:53:46.547Z,6.20
2023-04-16T17:56:14.657Z,6.83
2023-04-16T17:58:42.020Z,6.50
2023-04-16T18:01:09.443Z,6.63
2023-04-16T18:03:37.498Z,7.30
2023-04-16T18:08:32.532Z,7.10
2023-04-16T18:10:59.803Z,9.00
2023-04-16T18:13:27.379Z,8.40
2023-04-16T18:15:54.723Z,8.30
2023-04-16T18:18:22.090Z,9.10
2023-04-16T18:20:49.440Z,8.70
2023-04-16T18:23:16.676Z,8.13
2023-04-16T18:25:44.607Z,9.05
2023-04-16T18:28:14.019Z,9.50
2023-04-16T18:30:42.558Z,8.80
2023-04-16T18:35:40.806Z,8.38
2023-04-16T18:38:08.110Z,8.88
2023-04-16T18:40:38.516Z,8.50
2023-04-16T18:43:05.962Z,10.18
2023-04-16T18:45:34.276Z,11.15
2023-04-16T18:48:04.271Z,10.68
2023-04-16T18:50:32.208Z,12.18
2023-04-16T18:52:59.577Z,9.15
2023-04-16T18:55:27.100Z,10.18
2023-04-16T18:57:55.336Z,9.65
2023-04-16T19:02:50.182Z,9.73
2023-04-16T19:05:18.059Z,9.90
2023-04-16T19:07:46.088Z,10.85
2023-04-16T19:10:13.464Z,9.85
2023-04-16T19:12:41.094Z,10.73
2023-04-16T19:15:08.700Z,10.63
2023-04-16T19:17:36.060Z,9.88
2023-04-16T19:20:08.026Z,11.03
2023-04-16T19:22:35.223Z,10.95
2023-04-16T19:25:02.566Z,11.90
2023-04-16T19:27:31.445Z,15.57
2023-04-16T19:29:58.817Z,23.23
2023-04-16T19:32:26.273Z,18.77
2023-04-16T19:34:53.568Z,17.48
2023-04-16T19:37:20.901Z,14.40
2023-04-16T19:39:48.224Z,14.63
2023-04-16T19:42:15.782Z,14.65
2023-04-16T19:44:43.061Z,15.07
2023-04-16T19:47:10.386Z,13.20
2023-04-16T19:49:38.444Z,13.70
2023-04-16T19:52:05.636Z,11.10
2023-04-16T19:54:34.911Z,11.48
2023-04-16T19:57:02.245Z,10.77
2023-04-16T19:59:30.038Z,10.52
2023-04-16T20:01:57.383Z,11.10
2023-04-16T20:04:24.807Z,11.17
2023-04-16T20:06:52.579Z,10.67
2023-04-16T20:09:20.400Z,8.90
2023-04-16T20:11:48.022Z,9.32
2023-04-16T20:14:15.439Z,7.40
2023-04-16T20:16:43.870Z,7.93
2023-04-16T20:19:11.350Z,7.35
2023-04-16T20:21:40.520Z,7.53
2023-04-16T20:24:10.696Z,6.97
2023-04-16T20:26:38.173Z,7.85
2023-04-16T20:29:05.449Z,6.75
2023-04-16T20:31:32.680Z,6.75
2023-04-16T20:33:59.866Z,6.80
2023-04-16T20:36:27.975Z,6.50
2023-04-16T20:38:55.250Z,6.18
2023-04-16T20:41:22.680Z,5.38
2023-04-16T20:43:52.841Z,6.07
2023-04-16T20:46:24.516Z,5.85
2023-04-16T20:48:52.182Z,6.30
2023-04-16T20:51:19.573Z,6.22
2023-04-16T20:53:46.977Z,6.37
2023-04-16T20:56:15.145Z,6.57
2023-04-16T21:01:10.436Z,5.40
2023-04-16T21:03:38.057Z,5.47
2023-04-16T21:06:05.593Z,5.68
2023-04-16T21:08:32.960Z,5.43
2023-04-16T21:11:00.271Z,4.68
2023-04-16T21:13:27.555Z,5.32
2023-04-16T21:15:54.936Z,6.05
2023-04-16T21:18:22.217Z,5.77
2023-04-16T21:20:49.445Z,5.13
2023-04-16T21:23:16.685Z,4.93
2023-04-16T21:25:43.948Z,4.70
2023-04-16T21:28:11.314Z,4.68
2023-04-16T21:30:38.994Z,4.95
2023-04-16T21:33:06.884Z,5.15
2023-04-16T21:35:34.331Z,4.73
2023-04-16T21:38:01.600Z,4.95
2023-04-16T21:40:28.959Z,5.10
2023-04-16T21:42:56.182Z,4.83
2023-04-16T21:45:23.422Z,5.18
2023-04-16T21:47:50.829Z,5.13
2023-04-16T21:50:18.385Z,4.80
2023-04-16T21:52:46.733Z,5.43
2023-04-16T21:55:14.888Z,4.40
2023-04-16T21:57:42.201Z,5.22
2023-04-16T22:00:14.324Z,5.53
2023-04-16T22:02:43.104Z,5.63
2023-04-16T22:05:11.512Z,5.75
2023-04-16T22:07:39.089Z,5.32
2023-04-16T22:10:08.829Z,4.73
2023-04-16T22:12:40.009Z,5.03
2023-04-16T22:15:09.192Z,4.47
2023-04-16T22:17:37.289Z,4.47
2023-04-16T22:20:10.197Z,4.75
2023-04-16T22:22:37.570Z,4.70
2023-04-16T22:25:05.608Z,5.18
2023-04-16T22:27:34.736Z,4.85
2023-04-16T22:30:03.283Z,4.45
2023-04-16T22:32:34.383Z,4.75
2023-04-16T22:35:02.154Z,5.27
2023-04-16T22:37:31.264Z,5.22
2023-04-16T22:39:58.558Z,4.97
2023-04-16T22:42:25.833Z,4.97
2023-04-16T22:44:53.105Z,5.55
2023-04-16T22:47:21.701Z,4.53
2023-04-16T22:49:49.009Z,4.20
2023-04-16T22:52:16.336Z,4.85
2023-04-16T22:54:43.648Z,4.50
2023-04-16T22:57:10.938Z,4.35
2023-04-16T22:59:38.304Z,4.28
2023-04-16T23:02:05.622Z,5.78
2023-04-16T23:04:33.401Z,3.77
2023-04-16T23:07:01.113Z,4.63
2023-04-16T23:09:28.372Z,4.57
2023-04-16T23:11:55.978Z,4.65
2023-04-16T23:14:23.321Z,4.40
2023-04-16T23:16:50.486Z,4.60
2023-04-16T23:19:17.775Z,4.82
2023-04-16T23:21:45.071Z,4.05
2023-04-16T23:24:12.298Z,6.00
2023-04-16T23:26:39.603Z,4.75
2023-04-16T23:29:06.970Z,5.57
2023-04-16T23:31:34.222Z,5.07
2023-04-16T23:34:01.549Z,5.07
2023-04-16T23:36:28.805Z,4.70
2023-04-16T23:38:56.028Z,5.00
2023-04-16T23:41:23.835Z,4.50
2023-04-16T23:43:51.341Z,4.57
2023-04-16T23:46:18.581Z,4.78
2023-04-16T23:48:45.907Z,5.05
2023-04-16T23:51:13.220Z,4.73
2023-04-16T23:53:40.958Z,5.30
2023-04-16T23:56:11.312Z,5.10
2023-04-16T23:58:38.808Z,4.85
